sensor_id;sensor_type;location;lat;lon;timestamp;pressure;altitude;pressure_sealevel;temperature;humidity
8253;BME280;61313;48.396;10.008;2023-04-08T00:00:18;96336.72;;;9.75;65.98
8253;BME280;61313;48.396;10.008;2023-04-08T00:02:44;96342.91;;;9.74;66.38
8253;BME280;61313;48.396;10.008;2023-04-08T00:05:10;96338.63;;;9.72;66.14
8253;BME280;61313;48.396;10.008;2023-04-08T00:07:36;96337.78;;;9.71;65.89
8253;BME280;61313;48.396;10.008;2023-04-08T00:10:02;96347.00;;;9.80;65.69
8253;BME280;61313;48.396;10.008;2023-04-08T00:12:27;96345.13;;;9.84;65.88
8253;BME280;61313;48.396;10.008;2023-04-08T00:14:53;96343.63;;;9.78;65.66
8253;BME280;61313;48.396;10.008;2023-04-08T00:17:18;96339.56;;;9.71;66.47
8253;BME280;61313;48.396;10.008;2023-04-08T00:19:44;96345.72;;;9.70;65.96
8253;BME280;61313;48.396;10.008;2023-04-08T00:22:10;96341.25;;;9.72;65.92
8253;BME280;61313;48.396;10.008;2023-04-08T00:24:35;96339.56;;;9.71;65.97
8253;BME280;61313;48.396;10.008;2023-04-08T00:27:01;96347.28;;;9.74;66.30
8253;BME280;61313;48.396;10.008;2023-04-08T00:29:27;96339.56;;;9.71;66.78
8253;BME280;61313;48.396;10.008;2023-04-08T00:31:53;96349.53;;;9.61;66.46
8253;BME280;61313;48.396;10.008;2023-04-08T00:34:19;96350.38;;;9.41;67.50
8253;BME280;61313;48.396;10.008;2023-04-08T00:36:44;96351.66;;;9.31;68.12
8253;BME280;61313;48.396;10.008;2023-04-08T00:39:11;96349.88;;;9.31;68.48
8253;BME280;61313;48.396;10.008;2023-04-08T00:41:36;96352.69;;;9.27;68.51
8253;BME280;61313;48.396;10.008;2023-04-08T00:44:02;96347.97;;;9.35;68.39
8253;BME280;61313;48.396;10.008;2023-04-08T00:46:27;96341.66;;;9.41;68.12
8253;BME280;61313;48.396;10.008;2023-04-08T00:48:53;96343.78;;;9.53;67.43
8253;BME280;61313;48.396;10.008;2023-04-08T00:51:19;96348.59;;;9.42;67.84
8253;BME280;61313;48.396;10.008;2023-04-08T00:53:45;96355.66;;;9.18;68.89
8253;BME280;61313;48.396;10.008;2023-04-08T00:56:11;96358.81;;;9.26;69.65
8253;BME280;61313;48.396;10.008;2023-04-08T00:58:37;96346.63;;;9.47;68.63
8253;BME280;61313;48.396;10.008;2023-04-08T01:01:10;96344.94;;;9.46;68.48
8253;BME280;61313;48.396;10.008;2023-04-08T01:03:47;96345.66;;;9.49;68.25
8253;BME280;61313;48.396;10.008;2023-04-08T01:06:22;96343.84;;;9.51;68.19
8253;BME280;61313;48.396;10.008;2023-04-08T01:08:51;96346.16;;;9.37;68.44
8253;BME280;61313;48.396;10.008;2023-04-08T01:11:19;96351.56;;;9.32;68.94
8253;BME280;61313;48.396;10.008;2023-04-08T01:13:46;96358.94;;;9.23;69.16
8253;BME280;61313;48.396;10.008;2023-04-08T01:16:14;96354.84;;;8.94;70.34
8253;BME280;61313;48.396;10.008;2023-04-08T01:18:42;96361.25;;;9.08;69.46
8253;BME280;61313;48.396;10.008;2023-04-08T01:21:08;96349.88;;;9.09;69.78
8253;BME280;61313;48.396;10.008;2023-04-08T01:23:58;96353.84;;;9.20;70.01
8253;BME280;61313;48.396;10.008;2023-04-08T01:26:26;96351.88;;;9.25;70.11
8253;BME280;61313;48.396;10.008;2023-04-08T01:28:54;96351.94;;;9.23;69.31
8253;BME280;61313;48.396;10.008;2023-04-08T01:31:21;96358.44;;;9.35;69.29
8253;BME280;61313;48.396;10.008;2023-04-08T01:33:48;96355.78;;;9.37;68.71
8253;BME280;61313;48.396;10.008;2023-04-08T01:36:16;96347.75;;;9.41;69.00
8253;BME280;61313;48.396;10.008;2023-04-08T01:38:42;96354.56;;;9.45;68.83
8253;BME280;61313;48.396;10.008;2023-04-08T01:41:10;96348.53;;;9.43;69.43
8253;BME280;61313;48.396;10.008;2023-04-08T01:43:37;96349.19;;;9.48;68.93
8253;BME280;61313;48.396;10.008;2023-04-08T01:46:04;96348.72;;;9.39;68.99
8253;BME280;61313;48.396;10.008;2023-04-08T01:48:30;96345.25;;;9.38;69.08
8253;BME280;61313;48.396;10.008;2023-04-08T01:50:57;96336.28;;;9.44;68.99
8253;BME280;61313;48.396;10.008;2023-04-08T01:53:24;96343.47;;;9.39;69.46
8253;BME280;61313;48.396;10.008;2023-04-08T01:55:56;96352.06;;;9.42;69.70
8253;BME280;61313;48.396;10.008;2023-04-08T01:58:23;96344.09;;;9.45;69.15
8253;BME280;61313;48.396;10.008;2023-04-08T02:00:53;96338.53;;;9.53;69.38
8253;BME280;61313;48.396;10.008;2023-04-08T02:03:21;96343.97;;;9.48;69.24
8253;BME280;61313;48.396;10.008;2023-04-08T02:05:48;96340.56;;;9.46;69.38
8253;BME280;61313;48.396;10.008;2023-04-08T02:08:13;96340.69;;;9.43;69.58
8253;BME280;61313;48.396;10.008;2023-04-08T02:10:39;96353.41;;;9.30;69.48
8253;BME280;61313;48.396;10.008;2023-04-08T02:13:05;96351.53;;;9.34;69.49
8253;BME280;61313;48.396;10.008;2023-04-08T02:15:33;96348.25;;;9.29;69.31
8253;BME280;61313;48.396;10.008;2023-04-08T02:18:09;96354.31;;;9.29;70.19
8253;BME280;61313;48.396;10.008;2023-04-08T02:21:16;96349.84;;;9.33;70.25
8253;BME280;61313;48.396;10.008;2023-04-08T02:23:48;96353.72;;;9.23;69.63
8253;BME280;61313;48.396;10.008;2023-04-08T02:26:15;96351.28;;;9.18;70.37
8253;BME280;61313;48.396;10.008;2023-04-08T02:28:41;96352.88;;;9.22;69.88
8253;BME280;61313;48.396;10.008;2023-04-08T02:31:10;96355.66;;;9.18;69.94
8253;BME280;61313;48.396;10.008;2023-04-08T02:33:38;96353.72;;;9.23;70.60
8253;BME280;61313;48.396;10.008;2023-04-08T02:36:04;96347.31;;;9.30;69.81
8253;BME280;61313;48.396;10.008;2023-04-08T02:38:30;96356.53;;;9.40;69.51
8253;BME280;61313;48.396;10.008;2023-04-08T02:40:56;96352.84;;;9.44;69.33
8253;BME280;61313;48.396;10.008;2023-04-08T02:43:22;96361.19;;;9.32;70.72
8253;BME280;61313;48.396;10.008;2023-04-08T02:45:53;96358.06;;;9.24;70.44
8253;BME280;61313;48.396;10.008;2023-04-08T02:48:19;96357.75;;;9.31;69.77
8253;BME280;61313;48.396;10.008;2023-04-08T02:50:44;96361.69;;;9.20;69.91
8253;BME280;61313;48.396;10.008;2023-04-08T02:53:10;96356.59;;;9.17;70.13
8253;BME280;61313;48.396;10.008;2023-04-08T02:55:36;96360.91;;;9.18;71.02
8253;BME280;61313;48.396;10.008;2023-04-08T02:58:02;96357.63;;;8.89;71.47
8253;BME280;61313;48.396;10.008;2023-04-08T03:00:27;96360.97;;;8.93;71.36
8253;BME280;61313;48.396;10.008;2023-04-08T03:02:53;96360.75;;;8.99;71.30
8253;BME280;61313;48.396;10.008;2023-04-08T03:05:18;96353.53;;;9.05;70.70
8253;BME280;61313;48.396;10.008;2023-04-08T03:07:44;96366.94;;;9.20;70.23
8253;BME280;61313;48.396;10.008;2023-04-08T03:10:09;96357.06;;;9.26;69.07
8253;BME280;61313;48.396;10.008;2023-04-08T03:12:35;96353.88;;;9.18;69.11
8253;BME280;61313;48.396;10.008;2023-04-08T03:15:00;96357.59;;;9.35;68.51
8253;BME280;61313;48.396;10.008;2023-04-08T03:17:27;96357.91;;;9.05;69.50
8253;BME280;61313;48.396;10.008;2023-04-08T03:19:53;96356.47;;;9.20;69.23
8253;BME280;61313;48.396;10.008;2023-04-08T03:22:18;96359.31;;;9.14;69.34
8253;BME280;61313;48.396;10.008;2023-04-08T03:24:44;96359.91;;;9.20;69.55
8253;BME280;61313;48.396;10.008;2023-04-08T03:27:09;96356.09;;;9.29;68.83
8253;BME280;61313;48.396;10.008;2023-04-08T03:29:36;96358.75;;;9.27;69.24
8253;BME280;61313;48.396;10.008;2023-04-08T03:32:02;96360.53;;;9.27;69.28
8253;BME280;61313;48.396;10.008;2023-04-08T03:34:27;96359.47;;;9.09;69.85
8253;BME280;61313;48.396;10.008;2023-04-08T03:36:52;96362.53;;;9.20;69.59
8253;BME280;61313;48.396;10.008;2023-04-08T03:39:18;96371.19;;;9.22;68.88
8253;BME280;61313;48.396;10.008;2023-04-08T03:41:44;96366.66;;;9.26;69.12
8253;BME280;61313;48.396;10.008;2023-04-08T03:44:09;96368.16;;;9.33;69.33
8253;BME280;61313;48.396;10.008;2023-04-08T03:46:34;96366.94;;;9.20;68.68
8253;BME280;61313;48.396;10.008;2023-04-08T03:49:00;96364.97;;;9.25;68.29
8253;BME280;61313;48.396;10.008;2023-04-08T03:51:25;96363.81;;;9.10;69.30
8253;BME280;61313;48.396;10.008;2023-04-08T03:53:52;96367.16;;;9.14;69.17
8253;BME280;61313;48.396;10.008;2023-04-08T03:56:18;96366.13;;;8.96;70.39
8253;BME280;61313;48.396;10.008;2023-04-08T03:58:43;96370.47;;;8.95;70.17
8253;BME280;61313;48.396;10.008;2023-04-08T04:01:08;96370.03;;;9.07;70.36
8253;BME280;61313;48.396;10.008;2023-04-08T04:03:34;96377.72;;;9.12;70.75
8253;BME280;61313;48.396;10.008;2023-04-08T04:05:59;96371.84;;;9.05;69.86
8253;BME280;61313;48.396;10.008;2023-04-08T04:08:25;96376.59;;;8.96;70.96
8253;BME280;61313;48.396;10.008;2023-04-08T04:10:50;96371.34;;;8.96;70.72
8253;BME280;61313;48.396;10.008;2023-04-08T04:13:16;96375.53;;;9.00;70.16
8253;BME280;61313;48.396;10.008;2023-04-08T04:15:43;96372.38;;;8.92;70.87
8253;BME280;61313;48.396;10.008;2023-04-08T04:18:09;96369.69;;;8.93;70.49
8253;BME280;61313;48.396;10.008;2023-04-08T04:20:34;96375.28;;;8.84;70.85
8253;BME280;61313;48.396;10.008;2023-04-08T04:23:01;96376.34;;;9.02;70.16
8253;BME280;61313;48.396;10.008;2023-04-08T04:25:26;96374.34;;;9.08;70.23
8253;BME280;61313;48.396;10.008;2023-04-08T04:27:52;96382.31;;;9.05;69.90
8253;BME280;61313;48.396;10.008;2023-04-08T04:30:17;96382.94;;;9.12;70.22
8253;BME280;61313;48.396;10.008;2023-04-08T04:32:43;96387.75;;;9.23;69.38
8253;BME280;61313;48.396;10.008;2023-04-08T04:35:10;96381.50;;;9.27;68.99
8253;BME280;61313;48.396;10.008;2023-04-08T04:37:35;96380.75;;;9.23;69.17
8253;BME280;61313;48.396;10.008;2023-04-08T04:40:02;96384.59;;;9.15;68.89
8253;BME280;61313;48.396;10.008;2023-04-08T04:42:27;96389.03;;;9.13;69.16
8253;BME280;61313;48.396;10.008;2023-04-08T04:44:53;96384.59;;;9.15;69.96
8253;BME280;61313;48.396;10.008;2023-04-08T04:47:19;96382.88;;;9.14;69.20
8253;BME280;61313;48.396;10.008;2023-04-08T04:49:44;96379.69;;;9.05;69.60
8253;BME280;61313;48.396;10.008;2023-04-08T04:52:10;96382.19;;;9.08;69.24
8253;BME280;61313;48.396;10.008;2023-04-08T04:54:36;96389.06;;;9.11;68.96
8253;BME280;61313;48.396;10.008;2023-04-08T04:57:01;96394.59;;;9.03;68.79
8253;BME280;61313;48.396;10.008;2023-04-08T04:59:26;96391.47;;;9.17;68.39
8253;BME280;61313;48.396;10.008;2023-04-08T05:01:52;96390.50;;;9.20;69.12
8253;BME280;61313;48.396;10.008;2023-04-08T05:04:17;96401.75;;;9.22;68.32
8253;BME280;61313;48.396;10.008;2023-04-08T05:06:43;96393.41;;;9.12;68.74
8253;BME280;61313;48.396;10.008;2023-04-08T05:09:08;96400.84;;;9.23;68.30
8253;BME280;61313;48.396;10.008;2023-04-08T05:11:34;96397.72;;;9.13;68.44
8253;BME280;61313;48.396;10.008;2023-04-08T05:13:59;96406.25;;;9.18;69.62
8253;BME280;61313;48.396;10.008;2023-04-08T05:16:25;96400.97;;;9.20;68.26
8253;BME280;61313;48.396;10.008;2023-04-08T05:18:51;96405.19;;;9.24;68.32
8253;BME280;61313;48.396;10.008;2023-04-08T05:21:16;96402.59;;;9.22;68.47
8253;BME280;61313;48.396;10.008;2023-04-08T05:23:41;96403.06;;;9.33;67.41
8253;BME280;61313;48.396;10.008;2023-04-08T05:26:07;96388.59;;;9.23;68.23
8253;BME280;61313;48.396;10.008;2023-04-08T05:28:33;96400.91;;;9.21;68.57
8253;BME280;61313;48.396;10.008;2023-04-08T05:30:59;96398.16;;;9.24;68.08
8253;BME280;61313;48.396;10.008;2023-04-08T05:33:24;96403.53;;;9.21;68.38
8253;BME280;61313;48.396;10.008;2023-04-08T05:35:50;96412.13;;;9.25;67.75
8253;BME280;61313;48.396;10.008;2023-04-08T05:38:17;96406.81;;;9.26;68.31
8253;BME280;61313;48.396;10.008;2023-04-08T05:40:42;96410.09;;;9.09;68.30
8253;BME280;61313;48.396;10.008;2023-04-08T05:43:08;96414.19;;;9.17;67.64
8253;BME280;61313;48.396;10.008;2023-04-08T05:45:33;96410.75;;;9.15;68.87
8253;BME280;61313;48.396;10.008;2023-04-08T05:47:58;96417.16;;;9.07;68.25
8253;BME280;61313;48.396;10.008;2023-04-08T05:50:24;96419.19;;;8.99;68.80
8253;BME280;61313;48.396;10.008;2023-04-08T05:52:49;96416.06;;;9.13;68.33
8253;BME280;61313;48.396;10.008;2023-04-08T05:55:15;96421.13;;;9.18;68.11
8253;BME280;61313;48.396;10.008;2023-04-08T05:57:41;96422.94;;;9.16;68.03
8253;BME280;61313;48.396;10.008;2023-04-08T06:00:08;96430.31;;;9.28;67.28
8253;BME280;61313;48.396;10.008;2023-04-08T06:02:34;96434.34;;;9.15;68.10
8253;BME280;61313;48.396;10.008;2023-04-08T06:05:01;96431.72;;;9.15;68.79
8253;BME280;61313;48.396;10.008;2023-04-08T06:07:28;96431.38;;;9.00;68.88
8253;BME280;61313;48.396;10.008;2023-04-08T06:09:53;96440.78;;;8.81;68.61
8253;BME280;61313;48.396;10.008;2023-04-08T06:12:18;96446.91;;;8.56;69.63
8253;BME280;61313;48.396;10.008;2023-04-08T06:14:44;96446.00;;;8.31;71.22
8253;BME280;61313;48.396;10.008;2023-04-08T06:17:10;96444.25;;;8.58;70.12
8253;BME280;61313;48.396;10.008;2023-04-08T06:19:35;96460.75;;;8.83;68.67
8253;BME280;61313;48.396;10.008;2023-04-08T06:22:01;96453.03;;;9.04;68.81
8253;BME280;61313;48.396;10.008;2023-04-08T06:24:27;96450.25;;;9.08;67.60
8253;BME280;61313;48.396;10.008;2023-04-08T06:26:54;96456.66;;;9.00;68.10
8253;BME280;61313;48.396;10.008;2023-04-08T06:29:20;96453.38;;;9.18;67.95
8253;BME280;61313;48.396;10.008;2023-04-08T06:31:47;96454.34;;;9.16;68.44
8253;BME280;61313;48.396;10.008;2023-04-08T06:34:12;96451.84;;;9.13;68.42
8253;BME280;61313;48.396;10.008;2023-04-08T06:36:38;96462.31;;;9.13;68.81
8253;BME280;61313;48.396;10.008;2023-04-08T06:39:03;96449.91;;;9.18;67.71
8253;BME280;61313;48.396;10.008;2023-04-08T06:41:29;96453.16;;;9.01;67.69
8253;BME280;61313;48.396;10.008;2023-04-08T06:43:55;96465.84;;;9.11;67.99
8253;BME280;61313;48.396;10.008;2023-04-08T06:46:21;96468.19;;;9.19;67.59
8253;BME280;61313;48.396;10.008;2023-04-08T06:48:46;96465.97;;;9.08;68.88
8253;BME280;61313;48.396;10.008;2023-04-08T06:51:12;96469.53;;;9.06;69.11
8253;BME280;61313;48.396;10.008;2023-04-08T06:53:37;96469.66;;;9.03;68.92
8253;BME280;61313;48.396;10.008;2023-04-08T06:56:03;96472.47;;;9.22;67.89
8253;BME280;61313;48.396;10.008;2023-04-08T06:58:28;96474.50;;;9.14;68.66
8253;BME280;61313;48.396;10.008;2023-04-08T07:00:54;96479.19;;;8.80;69.73
8253;BME280;61313;48.396;10.008;2023-04-08T07:03:20;96475.06;;;8.98;69.67
8253;BME280;61313;48.396;10.008;2023-04-08T07:05:46;96473.47;;;8.69;69.99
8253;BME280;61313;48.396;10.008;2023-04-08T07:08:12;96471.81;;;8.92;70.27
8253;BME280;61313;48.396;10.008;2023-04-08T07:10:37;96469.84;;;8.98;69.80
8253;BME280;61313;48.396;10.008;2023-04-08T07:13:03;96469.41;;;9.32;68.76
8253;BME280;61313;48.396;10.008;2023-04-08T07:15:29;96470.31;;;9.33;68.57
8253;BME280;61313;48.396;10.008;2023-04-08T07:17:55;96481.78;;;9.29;68.33
8253;BME280;61313;48.396;10.008;2023-04-08T07:20:21;96480.69;;;9.35;68.70
8253;BME280;61313;48.396;10.008;2023-04-08T07:22:47;96485.25;;;9.29;68.66
8253;BME280;61313;48.396;10.008;2023-04-08T07:25:13;96484.00;;;9.40;68.87
8253;BME280;61313;48.396;10.008;2023-04-08T07:27:38;96486.91;;;9.32;68.46
8253;BME280;61313;48.396;10.008;2023-04-08T07:30:04;96486.28;;;9.25;68.25
8253;BME280;61313;48.396;10.008;2023-04-08T07:32:31;96486.09;;;9.30;68.85
8253;BME280;61313;48.396;10.008;2023-04-08T07:34:58;96482.78;;;9.48;68.05
8253;BME280;61313;48.396;10.008;2023-04-08T07:37:24;96496.81;;;9.24;67.90
8253;BME280;61313;48.396;10.008;2023-04-08T07:39:49;96496.19;;;9.41;68.35
8253;BME280;61313;48.396;10.008;2023-04-08T07:42:15;96494.06;;;9.50;68.12
8253;BME280;61313;48.396;10.008;2023-04-08T07:44:40;96488.84;;;9.72;68.43
8253;BME280;61313;48.396;10.008;2023-04-08T07:47:06;96481.66;;;9.78;67.36
8253;BME280;61313;48.396;10.008;2023-04-08T07:49:31;96495.50;;;9.81;67.05
8253;BME280;61313;48.396;10.008;2023-04-08T07:51:57;96490.69;;;9.92;66.47
8253;BME280;61313;48.396;10.008;2023-04-08T07:54:25;96493.06;;;9.99;66.71
8253;BME280;61313;48.396;10.008;2023-04-08T07:56:50;96491.69;;;9.90;67.49
8253;BME280;61313;48.396;10.008;2023-04-08T07:59:16;96495.06;;;9.92;67.23
8253;BME280;61313;48.396;10.008;2023-04-08T08:01:41;96495.75;;;9.97;65.77
8253;BME280;61313;48.396;10.008;2023-04-08T08:04:07;96495.69;;;9.99;66.27
8253;BME280;61313;48.396;10.008;2023-04-08T08:06:32;96501.16;;;9.70;66.74
8253;BME280;61313;48.396;10.008;2023-04-08T08:08:58;96498.50;;;9.72;66.66
8253;BME280;61313;48.396;10.008;2023-04-08T08:11:24;96494.56;;;9.82;66.49
8253;BME280;61313;48.396;10.008;2023-04-08T08:13:52;96499.38;;;9.94;65.94
8253;BME280;61313;48.396;10.008;2023-04-08T08:16:18;96503.13;;;10.09;66.61
8253;BME280;61313;48.396;10.008;2023-04-08T08:18:43;96505.44;;;10.39;64.84
8253;BME280;61313;48.396;10.008;2023-04-08T08:21:09;96505.19;;;10.45;64.75
8253;BME280;61313;48.396;10.008;2023-04-08T08:23:34;96500.47;;;10.53;64.31
8253;BME280;61313;48.396;10.008;2023-04-08T08:26:03;96509.31;;;10.51;64.46
8253;BME280;61313;48.396;10.008;2023-04-08T08:28:29;96498.97;;;10.48;63.70
8253;BME280;61313;48.396;10.008;2023-04-08T08:30:54;96517.09;;;10.54;63.37
8253;BME280;61313;48.396;10.008;2023-04-08T08:33:20;96512.72;;;10.53;62.93
8253;BME280;61313;48.396;10.008;2023-04-08T08:35:46;96520.59;;;10.53;63.85
8253;BME280;61313;48.396;10.008;2023-04-08T08:38:11;96514.63;;;10.70;63.81
8253;BME280;61313;48.396;10.008;2023-04-08T08:40:38;96516.53;;;10.46;62.52
8253;BME280;61313;48.396;10.008;2023-04-08T08:43:03;96517.09;;;10.54;62.00
8253;BME280;61313;48.396;10.008;2023-04-08T08:45:29;96516.66;;;10.21;63.89
8253;BME280;61313;48.396;10.008;2023-04-08T08:47:55;96528.38;;;10.56;63.03
8253;BME280;61313;48.396;10.008;2023-04-08T08:50:22;96527.06;;;10.66;61.95
8253;BME280;61313;48.396;10.008;2023-04-08T08:52:48;96526.13;;;10.67;61.29
8253;BME280;61313;48.396;10.008;2023-04-08T08:55:17;96530.44;;;10.89;61.07
8253;BME280;61313;48.396;10.008;2023-04-08T08:57:43;96525.69;;;10.78;59.69
8253;BME280;61313;48.396;10.008;2023-04-08T09:00:09;96521.63;;;10.71;59.94
8253;BME280;61313;48.396;10.008;2023-04-08T09:02:35;96527.13;;;10.85;59.77
8253;BME280;61313;48.396;10.008;2023-04-08T09:05:02;96531.38;;;10.88;59.12
8253;BME280;61313;48.396;10.008;2023-04-08T09:07:30;96522.13;;;10.99;58.95
8253;BME280;61313;48.396;10.008;2023-04-08T09:09:57;96521.13;;;11.22;57.76
8253;BME280;61313;48.396;10.008;2023-04-08T09:12:24;96531.22;;;11.32;57.44
8253;BME280;61313;48.396;10.008;2023-04-08T09:14:50;96535.56;;;11.52;56.41
8253;BME280;61313;48.396;10.008;2023-04-08T09:17:30;96532.16;;;11.50;56.30
8253;BME280;61313;48.396;10.008;2023-04-08T09:20:10;96532.72;;;11.56;55.20
8253;BME280;61313;48.396;10.008;2023-04-08T09:25:31;96535.63;;;11.50;53.65
8253;BME280;61313;48.396;10.008;2023-04-08T09:27:57;96536.47;;;11.32;53.45
8253;BME280;61313;48.396;10.008;2023-04-08T09:30:25;96533.97;;;11.29;53.68
8253;BME280;61313;48.396;10.008;2023-04-08T09:32:55;96536.75;;;11.26;54.13
8253;BME280;61313;48.396;10.008;2023-04-08T09:35:22;96547.44;;;11.21;54.95
8253;BME280;61313;48.396;10.008;2023-04-08T09:37:48;96544.97;;;10.97;53.24
8253;BME280;61313;48.396;10.008;2023-04-08T09:40:14;96541.34;;;11.00;54.02
8253;BME280;61313;48.396;10.008;2023-04-08T09:42:44;96549.22;;;11.20;53.67
8253;BME280;61313;48.396;10.008;2023-04-08T09:45:10;96551.72;;;11.23;53.11
8253;BME280;61313;48.396;10.008;2023-04-08T09:48:23;96544.72;;;11.04;51.77
8253;BME280;61313;48.396;10.008;2023-04-08T09:50:49;96538.44;;;10.45;53.46
8253;BME280;61313;48.396;10.008;2023-04-08T09:55:55;96539.19;;;10.69;53.15
8253;BME280;61313;48.396;10.008;2023-04-08T09:58:27;96541.97;;;10.66;52.79
8253;BME280;61313;48.396;10.008;2023-04-08T10:00:54;96540.84;;;10.71;51.88
8253;BME280;61313;48.396;10.008;2023-04-08T10:05:53;96545.50;;;10.85;51.89
8253;BME280;61313;48.396;10.008;2023-04-08T10:08:21;96539.41;;;10.85;51.12
8253;BME280;61313;48.396;10.008;2023-04-08T10:10:48;96540.44;;;10.80;49.10
8253;BME280;61313;48.396;10.008;2023-04-08T10:13:13;96544.50;;;10.88;48.77
8253;BME280;61313;48.396;10.008;2023-04-08T10:15:39;96543.00;;;10.62;48.86
8253;BME280;61313;48.396;10.008;2023-04-08T10:23:05;96533.88;;;10.91;49.65
8253;BME280;61313;48.396;10.008;2023-04-08T10:25:38;96536.69;;;10.86;48.57
8253;BME280;61313;48.396;10.008;2023-04-08T10:30:38;96528.75;;;10.88;47.43
8253;BME280;61313;48.396;10.008;2023-04-08T10:33:22;96531.38;;;11.08;47.65
8253;BME280;61313;48.396;10.008;2023-04-08T10:38:40;96532.22;;;10.47;51.37
8253;BME280;61313;48.396;10.008;2023-04-08T10:41:11;96535.53;;;10.73;51.84
8253;BME280;61313;48.396;10.008;2023-04-08T10:43:38;96538.09;;;10.95;51.13
8253;BME280;61313;48.396;10.008;2023-04-08T10:46:03;96535.13;;;10.82;50.98
8253;BME280;61313;48.396;10.008;2023-04-08T10:48:29;96536.06;;;11.01;51.56
8253;BME280;61313;48.396;10.008;2023-04-08T10:50:58;96532.38;;;11.06;51.14
8253;BME280;61313;48.396;10.008;2023-04-08T10:55:54;96539.59;;;10.80;52.10
8253;BME280;61313;48.396;10.008;2023-04-08T10:58:27;96537.56;;;10.87;51.67
8253;BME280;61313;48.396;10.008;2023-04-08T11:00:52;96538.19;;;11.12;51.02
8253;BME280;61313;48.396;10.008;2023-04-08T11:03:18;96521.72;;;11.09;50.55
8253;BME280;61313;48.396;10.008;2023-04-08T11:05:43;96524.94;;;11.15;50.13
8253;BME280;61313;48.396;10.008;2023-04-08T11:08:09;96516.78;;;11.21;49.31
8253;BME280;61313;48.396;10.008;2023-04-08T11:10:37;96524.53;;;11.25;48.58
8253;BME280;61313;48.396;10.008;2023-04-08T11:13:06;96526.72;;;11.34;48.00
8253;BME280;61313;48.396;10.008;2023-04-08T11:15:32;96525.47;;;11.42;47.02
8253;BME280;61313;48.396;10.008;2023-04-08T11:17:58;96531.03;;;11.36;47.44
8253;BME280;61313;48.396;10.008;2023-04-08T11:20:24;96525.69;;;11.38;48.12
8253;BME280;61313;48.396;10.008;2023-04-08T11:22:50;96534.13;;;11.44;47.81
8253;BME280;61313;48.396;10.008;2023-04-08T11:25:16;96529.09;;;11.40;47.61
8253;BME280;61313;48.396;10.008;2023-04-08T11:27:42;96529.94;;;11.40;48.62
8253;BME280;61313;48.396;10.008;2023-04-08T11:30:09;96526.63;;;11.37;48.25
8253;BME280;61313;48.396;10.008;2023-04-08T11:32:36;96530.88;;;11.39;48.00
8253;BME280;61313;48.396;10.008;2023-04-08T11:35:05;96522.81;;;11.03;47.52
8253;BME280;61313;48.396;10.008;2023-04-08T11:37:39;96532.34;;;11.45;48.03
8253;BME280;61313;48.396;10.008;2023-04-08T11:40:11;96532.13;;;11.31;47.74
8253;BME280;61313;48.396;10.008;2023-04-08T11:42:38;96529.50;;;11.31;47.64
8253;BME280;61313;48.396;10.008;2023-04-08T11:45:11;96534.66;;;11.53;47.28
8253;BME280;61313;48.396;10.008;2023-04-08T11:47:37;96527.69;;;11.52;47.73
8253;BME280;61313;48.396;10.008;2023-04-08T11:50:03;96530.31;;;11.52;47.64
8253;BME280;61313;48.396;10.008;2023-04-08T11:55:09;96531.16;;;11.52;49.21
8253;BME280;61313;48.396;10.008;2023-04-08T11:57:34;96531.16;;;11.52;48.90
8253;BME280;61313;48.396;10.008;2023-04-08T12:00:00;96533.00;;;11.50;48.65
8253;BME280;61313;48.396;10.008;2023-04-08T12:02:26;96525.47;;;11.61;47.96
8253;BME280;61313;48.396;10.008;2023-04-08T12:04:51;96535.16;;;11.61;47.95
8253;BME280;61313;48.396;10.008;2023-04-08T12:07:16;96534.56;;;11.35;48.06
8253;BME280;61313;48.396;10.008;2023-04-08T12:09:42;96529.66;;;11.47;48.94
8253;BME280;61313;48.396;10.008;2023-04-08T12:12:07;96536.09;;;11.60;48.53
8253;BME280;61313;48.396;10.008;2023-04-08T12:14:33;96526.22;;;11.65;48.21
8253;BME280;61313;48.396;10.008;2023-04-08T12:16:58;96530.31;;;11.71;48.96
8253;BME280;61313;48.396;10.008;2023-04-08T12:19:24;96527.47;;;11.37;47.57
8253;BME280;61313;48.396;10.008;2023-04-08T12:21:49;96530.72;;;11.42;47.98
8253;BME280;61313;48.396;10.008;2023-04-08T12:24:15;96526.63;;;11.37;47.96
8253;BME280;61313;48.396;10.008;2023-04-08T12:26:40;96540.25;;;11.45;48.03
8253;BME280;61313;48.396;10.008;2023-04-08T12:29:06;96534.91;;;11.07;48.45
8253;BME280;61313;48.396;10.008;2023-04-08T12:31:33;96537.78;;;11.21;48.87
8253;BME280;61313;48.396;10.008;2023-04-08T12:33:59;96538.19;;;11.12;49.33
8253;BME280;61313;48.396;10.008;2023-04-08T12:36:24;96540.25;;;10.85;50.09
8253;BME280;61313;48.396;10.008;2023-04-08T12:38:51;96534.84;;;11.09;50.43
8253;BME280;61313;48.396;10.008;2023-04-08T12:41:16;96538.97;;;11.14;49.70
8253;BME280;61313;48.396;10.008;2023-04-08T12:43:42;96528.59;;;11.32;48.78
8253;BME280;61313;48.396;10.008;2023-04-08T12:46:07;96540.44;;;11.40;48.28
8253;BME280;61313;48.396;10.008;2023-04-08T12:48:32;96538.13;;;11.34;48.96
8253;BME280;61313;48.396;10.008;2023-04-08T12:50:58;96528.66;;;11.30;48.29
8253;BME280;61313;48.396;10.008;2023-04-08T12:53:23;96538.97;;;11.14;47.82
8253;BME280;61313;48.396;10.008;2023-04-08T12:55:49;96536.25;;;10.97;47.80
8253;BME280;61313;48.396;10.008;2023-04-08T12:58:15;96536.56;;;10.69;48.33
8253;BME280;61313;48.396;10.008;2023-04-08T13:00:41;96537.28;;;10.93;48.57
8253;BME280;61313;48.396;10.008;2023-04-08T13:03:11;96537.22;;;10.94;48.71
8253;BME280;61313;48.396;10.008;2023-04-08T13:05:37;96526.13;;;11.08;48.02
8253;BME280;61313;48.396;10.008;2023-04-08T13:08:02;96530.44;;;11.09;47.16
8253;BME280;61313;48.396;10.008;2023-04-08T13:10:27;96525.19;;;10.89;47.13
8253;BME280;61313;48.396;10.008;2023-04-08T13:12:53;96535.59;;;10.71;47.26
8253;BME280;61313;48.396;10.008;2023-04-08T13:15:18;96531.44;;;10.86;47.67
8253;BME280;61313;48.396;10.008;2023-04-08T13:17:44;96539.47;;;10.83;47.64
8253;BME280;61313;48.396;10.008;2023-04-08T13:20:10;96526.47;;;10.80;47.40
8253;BME280;61313;48.396;10.008;2023-04-08T13:22:35;96531.63;;;10.81;48.25
8253;BME280;61313;48.396;10.008;2023-04-08T13:25:01;96535.00;;;10.85;48.36
8253;BME280;61313;48.396;10.008;2023-04-08T13:27:27;96537.47;;;11.09;47.62